createdAt,value
2019-02-02T00:00:01.036Z,6.37
2019-02-02T00:02:28.520Z,6.77
2019-02-02T00:04:56.489Z,7.13
2019-02-02T00:07:23.938Z,10.00
2019-02-02T00:09:51.369Z,8.13
2019-02-02T00:12:18.907Z,6.90
2019-02-02T00:14:46.354Z,7.80
2019-02-02T00:17:13.785Z,7.87
2019-02-02T00:19:41.255Z,9.53
2019-02-02T00:22:08.679Z,7.12
2019-02-02T00:24:36.142Z,8.63
2019-02-02T00:27:03.681Z,7.97
2019-02-02T00:29:31.069Z,8.60
2019-02-02T00:31:58.487Z,6.53
2019-02-02T00:34:25.940Z,6.97
2019-02-02T00:36:53.431Z,7.03
2019-02-02T00:39:20.866Z,7.00
2019-02-02T00:41:48.298Z,6.57
2019-02-02T00:44:15.765Z,6.97
2019-02-02T00:46:43.219Z,7.97
2019-02-02T00:49:10.648Z,7.00
2019-02-02T00:51:38.090Z,6.10
2019-02-02T00:54:05.530Z,6.70
2019-02-02T00:56:32.969Z,6.70
2019-02-02T00:59:00.417Z,6.90
2019-02-02T01:01:27.965Z,7.37
2019-02-02T01:03:55.427Z,8.70
2019-02-02T01:06:22.844Z,7.13
2019-02-02T01:08:50.314Z,6.00
2019-02-02T01:11:17.770Z,6.57
2019-02-02T01:13:45.254Z,8.50
2019-02-02T01:16:12.744Z,7.07
2019-02-02T01:18:40.291Z,7.37
2019-02-02T01:21:07.764Z,6.70
2019-02-02T01:23:35.231Z,10.00
2019-02-02T01:26:02.745Z,8.18
2019-02-02T01:28:30.240Z,8.93
2019-02-02T01:30:58.379Z,7.72
2019-02-02T01:33:25.815Z,7.67
2019-02-02T01:35:53.275Z,7.63
2019-02-02T01:38:20.727Z,7.57
2019-02-02T01:40:48.204Z,6.63
2019-02-02T01:43:15.717Z,7.18
2019-02-02T01:45:43.192Z,6.80
2019-02-02T01:48:10.641Z,8.85
2019-02-02T01:50:38.106Z,10.10
2019-02-02T01:53:08.201Z,8.17
2019-02-02T01:55:35.663Z,7.80
2019-02-02T01:58:03.101Z,8.53
2019-02-02T02:00:31.187Z,8.93
2019-02-02T02:02:58.942Z,9.27
2019-02-02T02:05:26.419Z,7.23
2019-02-02T02:07:53.926Z,6.80
2019-02-02T02:10:21.418Z,7.50
2019-02-02T02:12:48.907Z,9.30
2019-02-02T02:15:16.338Z,8.23
2019-02-02T02:17:43.802Z,8.93
2019-02-02T02:20:11.282Z,8.35
2019-02-02T02:22:41.050Z,6.85
2019-02-02T02:25:07.001Z,7.25
2019-02-02T02:27:34.506Z,9.53
2019-02-02T02:30:01.967Z,8.37
2019-02-02T02:32:29.534Z,10.70
2019-02-02T02:34:57.015Z,10.93
2019-02-02T02:37:25.353Z,8.30
2019-02-02T02:39:52.861Z,7.87
2019-02-02T02:42:20.329Z,8.27
2019-02-02T02:44:47.816Z,9.30
2019-02-02T02:47:15.267Z,9.40
2019-02-02T02:49:42.684Z,6.97
2019-02-02T02:52:10.277Z,8.32
2019-02-02T02:54:37.697Z,7.93
2019-02-02T02:57:05.153Z,7.33
2019-02-02T02:59:32.606Z,7.73
2019-02-02T03:02:00.041Z,7.13
2019-02-02T03:04:27.539Z,7.30
2019-02-02T03:06:54.975Z,8.50
2019-02-02T03:09:22.439Z,9.53
2019-02-02T03:11:51.375Z,7.87
2019-02-02T03:14:19.073Z,7.87
2019-02-02T03:16:46.409Z,8.27
2019-02-02T03:19:13.853Z,7.72
2019-02-02T03:21:43.774Z,7.57
2019-02-02T03:24:08.759Z,7.83
2019-02-02T03:26:36.229Z,7.93
2019-02-02T03:29:03.761Z,7.67
2019-02-02T03:31:31.253Z,7.03
2019-02-02T03:33:58.741Z,10.23
2019-02-02T03:36:26.191Z,13.50
2019-02-02T03:38:53.671Z,7.43
2019-02-02T03:41:21.141Z,10.23
2019-02-02T03:43:48.629Z,7.25
2019-02-02T03:46:16.065Z,6.90
2019-02-02T03:48:43.540Z,7.73
2019-02-02T03:51:10.981Z,8.73
2019-02-02T03:53:41.091Z,9.63
2019-02-02T03:56:05.957Z,7.97
2019-02-02T03:58:33.396Z,7.97
2019-02-02T04:01:01.117Z,10.95
2019-02-02T04:03:28.581Z,8.10
2019-02-02T04:05:56.077Z,11.05
2019-02-02T04:08:24.775Z,8.73
2019-02-02T04:10:52.263Z,10.60
2019-02-02T04:13:19.791Z,9.67
2019-02-02T04:15:47.241Z,11.27
2019-02-02T04:18:14.721Z,9.68
2019-02-02T04:20:42.157Z,11.77
2019-02-02T04:23:09.663Z,12.55
2019-02-02T04:25:37.101Z,10.63
2019-02-02T04:28:04.530Z,9.17
2019-02-02T04:30:32.874Z,11.60
2019-02-02T04:33:00.550Z,11.03
2019-02-02T04:35:28.025Z,9.70
2019-02-02T04:37:55.463Z,9.07
2019-02-02T04:40:22.918Z,9.27
2019-02-02T04:42:50.417Z,9.57
2019-02-02T04:45:17.903Z,9.10
2019-02-02T04:47:45.365Z,10.57
2019-02-02T04:50:14.525Z,10.85
2019-02-02T04:52:43.466Z,9.93
2019-02-02T04:55:11.044Z,11.73
2019-02-02T04:57:38.523Z,9.00
2019-02-02T05:00:09.930Z,8.43
2019-02-02T05:02:37.397Z,10.87
2019-02-02T05:05:04.840Z,9.03
2019-02-02T05:07:32.924Z,10.07
2019-02-02T05:10:00.382Z,9.43
2019-02-02T05:12:27.880Z,12.52
2019-02-02T05:14:55.330Z,9.53
2019-02-02T05:17:22.798Z,9.70
2019-02-02T05:19:50.255Z,9.93
2019-02-02T05:22:17.737Z,10.05
2019-02-02T05:24:45.177Z,12.68
2019-02-02T05:27:12.667Z,11.93
2019-02-02T05:29:41.466Z,9.97
2019-02-02T05:32:07.628Z,11.40
2019-02-02T05:34:35.099Z,9.07
2019-02-02T05:37:03.394Z,11.60
2019-02-02T05:39:30.870Z,9.57
2019-02-02T05:41:58.374Z,13.07
2019-02-02T05:44:25.878Z,10.17
2019-02-02T05:46:53.355Z,10.03
2019-02-02T05:49:20.809Z,9.30
2019-02-02T05:51:48.290Z,9.13
2019-02-02T05:54:15.815Z,9.87
2019-02-02T05:56:43.247Z,9.60
2019-02-02T05:59:10.727Z,9.98
2019-02-02T06:01:38.207Z,10.38
2019-02-02T06:04:05.660Z,10.57
2019-02-02T06:06:34.057Z,9.63
2019-02-02T06:09:01.512Z,10.93
2019-02-02T06:11:28.992Z,10.02
2019-02-02T06:13:56.431Z,12.00
2019-02-02T06:16:23.882Z,10.07
2019-02-02T06:18:51.351Z,8.73
2019-02-02T06:21:18.823Z,9.75
2019-02-02T06:23:46.539Z,8.80
2019-02-02T06:26:14.005Z,9.87
2019-02-02T06:28:41.493Z,11.73
2019-02-02T06:31:08.962Z,10.77
2019-02-02T06:33:36.422Z,10.25
2019-02-02T06:36:04.756Z,9.93
2019-02-02T06:38:32.213Z,10.43
2019-02-02T06:40:59.733Z,12.00
2019-02-02T06:43:30.155Z,12.90
2019-02-02T06:45:54.750Z,10.93
2019-02-02T06:48:22.184Z,12.97
2019-02-02T06:50:49.640Z,9.97
2019-02-02T06:53:17.145Z,11.13
2019-02-02T06:55:44.639Z,12.00
2019-02-02T06:58:12.147Z,10.90
2019-02-02T07:00:39.608Z,12.73
2019-02-02T07:03:07.059Z,11.93
2019-02-02T07:05:35.297Z,15.40
2019-02-02T07:08:02.786Z,12.30
2019-02-02T07:10:30.364Z,12.30
2019-02-02T07:12:57.782Z,10.77
2019-02-02T07:15:28.902Z,12.07
2019-02-02T07:17:56.388Z,12.60
2019-02-02T07:20:23.842Z,10.80
2019-02-02T07:22:51.293Z,12.20
2019-02-02T07:25:18.732Z,12.40
2019-02-02T07:27:46.173Z,11.77
2019-02-02T07:30:15.114Z,11.55
2019-02-02T07:32:42.527Z,11.53
2019-02-02T07:35:09.989Z,10.88
2019-02-02T07:37:37.423Z,11.27
2019-02-02T07:40:04.916Z,12.15
2019-02-02T07:42:32.366Z,11.97
2019-02-02T07:44:59.831Z,14.93
2019-02-02T07:47:27.270Z,11.83
2019-02-02T07:49:54.725Z,13.47
2019-02-02T07:52:22.194Z,11.68
2019-02-02T07:54:49.608Z,13.98
2019-02-02T07:57:17.080Z,16.50
2019-02-02T07:59:44.552Z,13.10
2019-02-02T08:02:12.031Z,13.18
2019-02-02T08:04:39.511Z,15.90
2019-02-02T08:07:06.998Z,18.10
2019-02-02T08:09:34.474Z,14.17
2019-02-02T08:12:01.922Z,14.30
2019-02-02T08:14:29.381Z,14.17
2019-02-02T08:16:56.848Z,15.93
2019-02-02T08:19:25.757Z,13.97
2019-02-02T08:21:51.790Z,14.93
2019-02-02T08:24:19.239Z,17.00
2019-02-02T08:26:46.722Z,16.75
2019-02-02T08:29:14.178Z,16.08
2019-02-02T08:31:41.666Z,17.00
2019-02-02T08:34:09.150Z,17.30
2019-02-02T08:36:37.199Z,16.05
2019-02-02T08:39:04.657Z,20.63
2019-02-02T08:41:32.120Z,19.40
2019-02-02T08:43:59.565Z,19.03
2019-02-02T08:46:27.073Z,21.13
2019-02-02T08:48:55.397Z,22.77
2019-02-02T08:51:22.982Z,18.80
2019-02-02T08:53:50.462Z,19.85
2019-02-02T08:56:17.917Z,23.93
2019-02-02T08:58:45.379Z,21.67
2019-02-02T09:01:12.827Z,21.20
2019-02-02T09:03:40.288Z,20.30
2019-02-02T09:06:07.806Z,23.50
2019-02-02T09:08:35.225Z,20.57
2019-02-02T09:11:02.669Z,20.50
2019-02-02T09:13:30.156Z,20.77
2019-02-02T09:15:57.614Z,22.03
2019-02-02T09:18:25.063Z,24.12
2019-02-02T09:20:52.550Z,23.77
2019-02-02T09:23:20.043Z,23.37
2019-02-02T09:25:47.460Z,20.60
2019-02-02T09:28:14.926Z,20.00
2019-02-02T09:30:42.364Z,20.58
2019-02-02T09:33:09.847Z,20.20
2019-02-02T09:35:37.312Z,19.48
2019-02-02T09:38:04.955Z,17.03
2019-02-02T09:40:32.414Z,19.42
2019-02-02T09:42:59.885Z,20.70
2019-02-02T09:45:27.329Z,19.13
2019-02-02T09:47:54.776Z,18.33
2019-02-02T09:50:22.235Z,19.87
2019-02-02T09:52:50.981Z,18.65
2019-02-02T09:55:18.616Z,18.77
2019-02-02T09:57:46.106Z,18.95
2019-02-02T10:00:13.543Z,21.07
2019-02-02T10:02:41.005Z,19.93
2019-02-02T10:05:09.028Z,17.93
2019-02-02T10:07:36.477Z,22.57
2019-02-02T10:10:03.981Z,18.60
2019-02-02T10:12:31.450Z,19.07
2019-02-02T10:14:58.898Z,20.27
2019-02-02T10:17:26.384Z,18.17
2019-02-02T10:19:53.820Z,18.50
2019-02-02T10:22:21.277Z,17.80
2019-02-02T10:24:48.721Z,15.60
2019-02-02T10:27:16.180Z,16.63
2019-02-02T10:29:43.654Z,16.17
2019-02-02T10:32:11.117Z,15.67
2019-02-02T10:34:39.544Z,17.50
2019-02-02T10:37:07.002Z,16.50
2019-02-02T10:39:34.463Z,15.40
2019-02-02T10:42:01.921Z,14.80
2019-02-02T10:44:29.393Z,14.60
2019-02-02T10:46:56.830Z,16.53
2019-02-02T10:49:24.399Z,15.70
2019-02-02T10:51:51.933Z,16.50
2019-02-02T10:54:19.378Z,14.43
2019-02-02T10:56:46.819Z,17.17
2019-02-02T10:59:14.994Z,15.30
2019-02-02T11:01:50.721Z,17.73
2019-02-02T11:04:10.046Z,17.33
2019-02-02T11:06:37.710Z,21.20
2019-02-02T11:09:04.945Z,18.70
2019-02-02T11:11:32.448Z,19.70
2019-02-02T11:14:00.050Z,18.30
2019-02-02T11:16:27.634Z,17.30
2019-02-02T11:18:55.029Z,17.77
2019-02-02T11:21:22.373Z,20.53
2019-02-02T11:23:50.045Z,17.80
2019-02-02T11:26:17.744Z,20.03
2019-02-02T11:28:45.218Z,21.17
2019-02-02T11:31:12.512Z,19.10
2019-02-02T11:33:40.632Z,22.42
2019-02-02T11:36:08.113Z,23.27
2019-02-02T11:38:35.586Z,21.23
2019-02-02T11:41:03.071Z,20.93
2019-02-02T11:43:30.515Z,21.87
2019-02-02T11:45:57.973Z,25.07
2019-02-02T11:48:25.424Z,22.13
2019-02-02T11:50:52.893Z,22.85
2019-02-02T11:53:20.335Z,23.47
2019-02-02T11:55:47.795Z,23.80
2019-02-02T11:58:15.242Z,23.97
2019-02-02T12:00:42.699Z,23.60
2019-02-02T12:03:10.134Z,22.60
2019-02-02T12:05:37.594Z,25.13
2019-02-02T12:08:05.051Z,25.23
2019-02-02T12:10:32.479Z,27.20
2019-02-02T12:12:59.942Z,26.10
2019-02-02T12:15:27.407Z,27.53
2019-02-02T12:17:54.908Z,21.10
2019-02-02T12:20:22.356Z,21.10
2019-02-02T12:22:49.801Z,21.67
2019-02-02T12:25:17.246Z,20.23
2019-02-02T12:27:44.700Z,19.23
2019-02-02T12:30:18.807Z,18.30
2019-02-02T12:32:46.248Z,17.50
2019-02-02T12:35:14.493Z,19.43
2019-02-02T12:37:42.002Z,21.23
2019-02-02T12:40:09.432Z,19.20
2019-02-02T12:42:36.915Z,19.30
2019-02-02T12:45:04.380Z,20.57
2019-02-02T12:47:31.889Z,20.93
2019-02-02T12:49:59.333Z,21.83
2019-02-02T12:52:26.784Z,22.40
2019-02-02T12:54:54.271Z,20.57
2019-02-02T12:57:21.732Z,24.15
2019-02-02T12:59:49.202Z,21.92
2019-02-02T13:02:16.681Z,22.98
2019-02-02T13:04:44.140Z,24.63
2019-02-02T13:07:12.658Z,20.03
2019-02-02T13:09:40.061Z,24.47
2019-02-02T13:12:07.509Z,24.43
2019-02-02T13:14:35.023Z,27.60
2019-02-02T13:17:02.487Z,26.07
2019-02-02T13:19:29.953Z,28.38
2019-02-02T13:21:57.445Z,31.17
2019-02-02T13:24:24.911Z,27.90
2019-02-02T13:26:52.436Z,24.30
2019-02-02T13:29:19.919Z,22.90
2019-02-02T13:31:47.518Z,32.67
2019-02-02T13:34:14.999Z,33.13
2019-02-02T13:36:43.224Z,29.37
2019-02-02T13:39:10.874Z,31.53
2019-02-02T13:41:38.318Z,27.77
2019-02-02T13:44:05.797Z,29.53
2019-02-02T13:46:33.255Z,27.97
2019-02-02T13:49:00.738Z,28.23
2019-02-02T13:51:28.818Z,26.47
2019-02-02T13:53:56.348Z,30.90
2019-02-02T13:56:23.848Z,25.93
2019-02-02T13:58:51.344Z,26.90
2019-02-02T14:01:18.795Z,25.20
2019-02-02T14:03:46.236Z,28.03
2019-02-02T14:06:13.711Z,30.03
2019-02-02T14:08:41.150Z,30.07
2019-02-02T14:11:08.628Z,24.43
2019-02-02T14:13:37.253Z,29.40
2019-02-02T14:16:04.872Z,14.53
2019-02-02T14:18:32.326Z,28.60
2019-02-02T14:20:59.803Z,27.47
2019-02-02T14:23:27.295Z,23.67
2019-02-02T14:25:54.751Z,28.50
2019-02-02T14:28:28.498Z,25.80
2019-02-02T14:30:49.853Z,22.33
2019-02-02T14:33:17.295Z,27.73
2019-02-02T14:35:46.420Z,25.80
2019-02-02T14:38:14.404Z,25.08
2019-02-02T14:40:41.844Z,25.63
2019-02-02T14:43:09.313Z,25.63
2019-02-02T14:45:36.745Z,28.33
2019-02-02T14:48:04.245Z,29.30
2019-02-02T14:50:32.332Z,19.50
2019-02-02T14:52:59.171Z,29.80
2019-02-02T14:55:27.442Z,29.05
2019-02-02T14:57:54.900Z,33.07
2019-02-02T15:00:24.754Z,32.13
2019-02-02T15:02:52.393Z,27.30
2019-02-02T15:05:19.707Z,27.08
2019-02-02T15:07:47.174Z,17.73
2019-02-02T15:10:15.734Z,29.35
2019-02-02T15:12:43.178Z,29.73
2019-02-02T15:15:11.399Z,25.37
2019-02-02T15:17:38.862Z,29.30
2019-02-02T15:20:08.857Z,28.20
2019-02-02T15:22:36.319Z,33.80
2019-02-02T15:25:03.785Z,31.13
2019-02-02T15:27:31.240Z,32.75
2019-02-02T15:29:58.679Z,32.67
2019-02-02T15:32:28.199Z,34.03
2019-02-02T15:34:53.668Z,31.13
2019-02-02T15:37:21.201Z,26.52
2019-02-02T15:39:48.729Z,25.57
2019-02-02T15:42:16.188Z,28.97
2019-02-02T15:44:43.681Z,29.27
2019-02-02T15:47:11.111Z,31.40
2019-02-02T15:49:38.579Z,31.48
2019-02-02T15:52:06.047Z,33.77
2019-02-02T15:54:33.500Z,27.57
2019-02-02T15:57:00.963Z,26.58
2019-02-02T15:59:28.386Z,25.95
2019-02-02T16:01:55.881Z,25.55
2019-02-02T16:04:23.362Z,26.47
2019-02-02T16:06:50.818Z,27.77
2019-02-02T16:09:18.362Z,20.63
2019-02-02T16:11:46.132Z,25.60
2019-02-02T16:14:13.659Z,26.87
2019-02-02T16:16:42.134Z,32.37
2019-02-02T16:19:09.768Z,34.23
2019-02-02T16:21:37.262Z,29.12
2019-02-02T16:24:04.793Z,31.73
2019-02-02T16:26:32.267Z,30.03
2019-02-02T16:28:59.770Z,26.13
2019-02-02T16:31:27.259Z,25.20
2019-02-02T16:34:02.098Z,24.90
2019-02-02T16:36:22.188Z,29.50
2019-02-02T16:38:50.684Z,29.37
2019-02-02T16:41:18.154Z,27.93
2019-02-02T16:43:45.601Z,27.03
2019-02-02T16:46:13.123Z,28.77
2019-02-02T16:48:40.586Z,30.57
2019-02-02T16:51:08.024Z,23.00
2019-02-02T16:53:35.508Z,27.00
2019-02-02T16:56:02.957Z,26.27
2019-02-02T16:58:30.450Z,29.27
2019-02-02T17:00:57.876Z,26.03
2019-02-02T17:03:25.323Z,26.33
2019-02-02T17:05:52.785Z,26.33
2019-02-02T17:08:20.222Z,27.90
2019-02-02T17:10:47.714Z,29.50
2019-02-02T17:13:15.171Z,28.73
2019-02-02T17:15:42.627Z,29.47
2019-02-02T17:18:10.073Z,28.20
2019-02-02T17:20:37.552Z,25.97
2019-02-02T17:23:05.015Z,29.37
2019-02-02T17:25:32.473Z,25.40
2019-02-02T17:27:59.945Z,27.65
2019-02-02T17:30:27.397Z,26.00
2019-02-02T17:32:55.623Z,30.30
2019-02-02T17:35:23.123Z,31.37
2019-02-02T17:37:50.564Z,25.83
2019-02-02T17:40:26.089Z,28.20
2019-02-02T17:42:53.547Z,30.52
2019-02-02T17:45:21.038Z,25.20
2019-02-02T17:47:48.509Z,27.40
2019-02-02T17:50:17.335Z,32.73
2019-02-02T17:52:44.850Z,29.30
2019-02-02T17:55:12.312Z,29.70
2019-02-02T17:57:39.778Z,27.33
2019-02-02T18:00:08.017Z,36.13
2019-02-02T18:02:35.515Z,34.03
2019-02-02T18:05:02.961Z,34.03
2019-02-02T18:07:30.466Z,28.75
2019-02-02T18:09:57.911Z,29.47
2019-02-02T18:12:25.379Z,22.17
2019-02-02T18:14:52.831Z,28.70
2019-02-02T18:17:20.290Z,25.20
2019-02-02T18:19:47.720Z,31.90
2019-02-02T18:22:15.161Z,29.90
2019-02-02T18:24:42.772Z,31.80
2019-02-02T18:27:10.257Z,32.37
2019-02-02T18:29:37.744Z,28.57
2019-02-02T18:32:12.865Z,30.60
2019-02-02T18:34:32.694Z,31.93
2019-02-02T18:37:00.164Z,34.80
2019-02-02T18:39:27.588Z,38.13
2019-02-02T18:41:56.726Z,33.87
2019-02-02T18:44:24.357Z,38.17
2019-02-02T18:46:52.232Z,29.87
2019-02-02T18:49:19.689Z,35.83
2019-02-02T18:51:47.136Z,34.92
2019-02-02T18:54:14.623Z,32.07
2019-02-02T18:56:42.058Z,31.20
2019-02-02T18:59:09.660Z,40.23
2019-02-02T19:01:37.248Z,35.50
2019-02-02T19:04:04.731Z,36.47
2019-02-02T19:06:32.159Z,36.60
2019-02-02T19:08:59.752Z,44.27
2019-02-02T19:11:27.177Z,36.73
2019-02-02T19:13:54.642Z,44.23
2019-02-02T19:16:22.956Z,41.83
2019-02-02T19:18:50.413Z,32.73
2019-02-02T19:21:17.861Z,40.15
2019-02-02T19:23:45.317Z,47.87
2019-02-02T19:26:13.769Z,46.43
2019-02-02T19:28:41.289Z,42.80
2019-02-02T19:31:08.709Z,42.93
2019-02-02T19:33:36.164Z,41.47
2019-02-02T19:36:03.682Z,48.63
2019-02-02T19:38:31.235Z,44.77
2019-02-02T19:40:58.950Z,43.67
2019-02-02T19:43:26.393Z,46.97
2019-02-02T19:45:53.974Z,46.40
2019-02-02T19:48:21.393Z,35.77
2019-02-02T19:50:48.863Z,48.77
2019-02-02T19:53:16.382Z,42.97
2019-02-02T19:55:43.774Z,45.47
2019-02-02T19:58:11.222Z,48.27
2019-02-02T20:00:38.848Z,57.47
2019-02-02T20:03:06.313Z,48.73
2019-02-02T20:05:33.790Z,41.03
2019-02-02T20:08:01.280Z,49.20
2019-02-02T20:10:28.743Z,37.77
2019-02-02T20:12:56.174Z,29.10
2019-02-02T20:15:24.086Z,46.63
2019-02-02T20:17:51.689Z,53.57
2019-02-02T20:20:19.189Z,50.27
2019-02-02T20:22:46.656Z,46.73
2019-02-02T20:25:14.096Z,57.33
2019-02-02T20:27:41.590Z,42.88
2019-02-02T20:30:24.854Z,15.80
2019-02-02T20:32:52.419Z,41.47
2019-02-02T20:35:20.106Z,45.27
2019-02-02T20:37:47.599Z,49.90
2019-02-02T20:40:15.880Z,46.13
2019-02-02T20:42:43.403Z,48.23
2019-02-02T20:45:15.596Z,34.03
2019-02-02T20:47:43.182Z,44.00
2019-02-02T20:50:10.641Z,46.77
2019-02-02T20:52:46.961Z,47.90
2019-02-02T20:55:06.575Z,40.27
2019-02-02T20:57:34.015Z,44.97
2019-02-02T21:00:01.466Z,50.23
2019-02-02T21:02:28.950Z,46.50
2019-02-02T21:04:56.418Z,41.63
2019-02-02T21:07:23.855Z,45.47
2019-02-02T21:09:51.301Z,44.10
2019-02-02T21:12:18.742Z,46.93
2019-02-02T21:14:46.195Z,44.78
2019-02-02T21:17:13.664Z,40.97
2019-02-02T21:19:41.116Z,34.10
2019-02-02T21:22:08.624Z,39.97
2019-02-02T21:24:36.157Z,40.85
2019-02-02T21:27:04.030Z,41.40
2019-02-02T21:29:31.126Z,39.83
2019-02-02T21:31:58.583Z,42.80
2019-02-02T21:34:26.038Z,43.67
2019-02-02T21:36:53.650Z,39.97
2019-02-02T21:39:21.119Z,49.17
2019-02-02T21:41:48.592Z,38.70
2019-02-02T21:44:16.199Z,43.90
2019-02-02T21:46:44.194Z,43.10
2019-02-02T21:49:11.730Z,39.88
2019-02-02T21:51:39.200Z,42.28
2019-02-02T21:54:06.686Z,40.83
2019-02-02T21:56:34.205Z,42.67
2019-02-02T21:59:01.687Z,40.83
2019-02-02T22:01:29.387Z,44.70
2019-02-02T22:03:56.808Z,41.40
2019-02-02T22:06:24.295Z,41.37
2019-02-02T22:08:51.722Z,44.67
2019-02-02T22:11:19.182Z,40.08
2019-02-02T22:13:46.626Z,52.25
2019-02-02T22:16:14.072Z,47.57
2019-02-02T22:18:41.538Z,45.53
2019-02-02T22:21:08.992Z,45.53
2019-02-02T22:23:36.443Z,46.17
2019-02-02T22:26:05.024Z,48.40
2019-02-02T22:28:32.502Z,46.90
2019-02-02T22:30:59.953Z,49.57
2019-02-02T22:33:27.423Z,49.10
2019-02-02T22:35:54.859Z,47.27
2019-02-02T22:38:22.295Z,53.77
2019-02-02T22:40:49.762Z,48.57
2019-02-02T22:43:17.228Z,48.97
2019-02-02T22:45:44.681Z,48.55
2019-02-02T22:48:12.142Z,45.03
2019-02-02T22:50:39.592Z,45.87
2019-02-02T22:53:07.077Z,56.00
2019-02-02T22:55:34.529Z,49.13
2019-02-02T22:58:02.863Z,51.67
2019-02-02T23:00:56.804Z,58.87
2019-02-02T23:03:33.807Z,51.60
2019-02-02T23:06:39.404Z,60.43
2019-02-02T23:09:16.762Z,58.17
2019-02-02T23:11:55.797Z,62.03
2019-02-02T23:14:24.156Z,67.63
2019-02-02T23:16:51.617Z,66.13
2019-02-02T23:19:19.260Z,57.28
2019-02-02T23:21:46.642Z,59.03
2019-02-02T23:24:14.136Z,69.78
2019-02-02T23:26:41.626Z,52.27
2019-02-02T23:29:09.980Z,57.73
2019-02-02T23:31:37.470Z,64.63
2019-02-02T23:34:05.189Z,90.23
2019-02-02T23:36:33.507Z,100.87
2019-02-02T23:39:00.980Z,79.37
2019-02-02T23:41:28.416Z,62.60
2019-02-02T23:43:55.899Z,90.83
2019-02-02T23:46:23.353Z,199.83
2019-02-02T23:48:50.811Z,117.47
2019-02-02T23:51:18.310Z,189.65
2019-02-02T23:53:45.753Z,69.50
2019-02-02T23:56:13.249Z,134.20
2019-02-02T23:58:40.732Z,137.27
